sensor_id;sensor_type;location;lat;lon;timestamp;pressure;altitude;pressure_sealevel;temperature;humidity
32735;BME280;19112;51.076;3.706;2023-04-26T00:00:49;101867.78;;;7.55;61.82
32735;BME280;19112;51.076;3.706;2023-04-26T00:03:15;101788.56;;;7.13;61.54
32735;BME280;19112;51.076;3.706;2023-04-26T00:05:41;101875.91;;;7.59;61.64
32735;BME280;19112;51.076;3.706;2023-04-26T00:08:07;101906.22;;;7.71;61.65
32735;BME280;19112;51.076;3.706;2023-04-26T00:10:34;101916.94;;;7.75;61.75
32735;BME280;19112;51.076;3.706;2023-04-26T00:12:59;101834.94;;;7.30;61.57
32735;BME280;19112;51.076;3.706;2023-04-26T00:15:25;101871.63;;;7.47;62.02
32735;BME280;19112;51.076;3.706;2023-04-26T00:17:51;101910.84;;;7.61;61.79
32735;BME280;19112;51.076;3.706;2023-04-26T00:20:17;101846.34;;;7.32;61.83
32735;BME280;19112;51.076;3.706;2023-04-26T00:22:43;101753.13;;;6.75;61.67
32735;BME280;19112;51.076;3.706;2023-04-26T00:25:09;101924.13;;;7.65;62.13
32735;BME280;19112;51.076;3.706;2023-04-26T00:27:35;101837.66;;;7.19;61.60
32735;BME280;19112;51.076;3.706;2023-04-26T00:30:02;101787.72;;;6.86;62.15
32735;BME280;19112;51.076;3.706;2023-04-26T00:32:29;101804.97;;;6.97;62.19
32735;BME280;19112;51.076;3.706;2023-04-26T00:34:55;101822.94;;;7.06;62.04
32735;BME280;19112;51.076;3.706;2023-04-26T00:37:21;101942.75;;;7.56;62.39
32735;BME280;19112;51.076;3.706;2023-04-26T00:39:48;101869.56;;;7.28;62.10
32735;BME280;19112;51.076;3.706;2023-04-26T00:42:13;101654.78;;;6.05;61.82
32735;BME280;19112;51.076;3.706;2023-04-26T00:44:39;101795.09;;;6.78;62.47
32735;BME280;19112;51.076;3.706;2023-04-26T00:47:05;101909.50;;;7.40;62.37
32735;BME280;19112;51.076;3.706;2023-04-26T00:49:31;101787.56;;;6.70;62.37
32735;BME280;19112;51.076;3.706;2023-04-26T00:51:58;101919.72;;;7.35;62.39
32735;BME280;19112;51.076;3.706;2023-04-26T00:54:24;101922.09;;;7.32;62.28
32735;BME280;19112;51.076;3.706;2023-04-26T00:56:50;101834.38;;;6.67;62.30
32735;BME280;19112;51.076;3.706;2023-04-26T00:59:19;101712.63;;;6.13;62.49
32735;BME280;19112;51.076;3.706;2023-04-26T01:01:45;101878.06;;;6.97;62.31
32735;BME280;19112;51.076;3.706;2023-04-26T01:04:13;101872.66;;;6.94;62.21
32735;BME280;19112;51.076;3.706;2023-04-26T01:06:40;101917.53;;;7.15;62.36
32735;BME280;19112;51.076;3.706;2023-04-26T01:09:06;101770.34;;;6.32;62.37
32735;BME280;19112;51.076;3.706;2023-04-26T01:11:35;101879.22;;;6.88;62.36
32735;BME280;19112;51.076;3.706;2023-04-26T01:14:05;101812.59;;;6.53;62.79
32735;BME280;19112;51.076;3.706;2023-04-26T01:16:33;101832.94;;;6.59;62.16
32735;BME280;19112;51.076;3.706;2023-04-26T01:19:10;101514.00;;;4.84;62.11
32735;BME280;19112;51.076;3.706;2023-04-26T01:21:38;101853.22;;;6.63;62.47
32735;BME280;19112;51.076;3.706;2023-04-26T01:24:05;101850.31;;;6.71;62.71
32735;BME280;19112;51.076;3.706;2023-04-26T01:26:31;101763.47;;;6.19;62.97
32735;BME280;19112;51.076;3.706;2023-04-26T01:28:57;101867.78;;;6.72;62.86
32735;BME280;19112;51.076;3.706;2023-04-26T01:31:23;101901.16;;;6.91;62.96
32735;BME280;19112;51.076;3.706;2023-04-26T01:33:49;101855.09;;;6.65;62.93
32735;BME280;19112;51.076;3.706;2023-04-26T01:36:15;101858.53;;;6.64;63.04
32735;BME280;19112;51.076;3.706;2023-04-26T01:38:41;101692.13;;;5.66;63.06
32735;BME280;19112;51.076;3.706;2023-04-26T01:41:07;101797.47;;;6.34;62.97
32735;BME280;19112;51.076;3.706;2023-04-26T01:43:33;101854.13;;;6.63;63.09
32735;BME280;19112;51.076;3.706;2023-04-26T01:45:58;101908.69;;;6.87;62.95
32735;BME280;19112;51.076;3.706;2023-04-26T01:48:24;101805.06;;;6.31;63.24
32735;BME280;19112;51.076;3.706;2023-04-26T01:50:50;101767.97;;;6.09;63.21
32735;BME280;19112;51.076;3.706;2023-04-26T01:53:16;101852.91;;;6.58;63.20
32735;BME280;19112;51.076;3.706;2023-04-26T01:55:42;101782.09;;;6.12;63.41
32735;BME280;19112;51.076;3.706;2023-04-26T01:58:08;101602.22;;;5.06;63.41
32735;BME280;19112;51.076;3.706;2023-04-26T02:00:34;101802.88;;;6.24;63.73
32735;BME280;19112;51.076;3.706;2023-04-26T02:03:00;101811.28;;;6.33;63.81
32735;BME280;19112;51.076;3.706;2023-04-26T02:05:26;101835.75;;;6.48;63.88
32735;BME280;19112;51.076;3.706;2023-04-26T02:07:52;101776.28;;;6.16;63.65
32735;BME280;19112;51.076;3.706;2023-04-26T02:10:17;101753.22;;;6.09;63.85
32735;BME280;19112;51.076;3.706;2023-04-26T02:12:43;101885.03;;;6.83;64.37
32735;BME280;19112;51.076;3.706;2023-04-26T02:15:10;101781.69;;;6.33;63.53
32735;BME280;19112;51.076;3.706;2023-04-26T02:17:36;101785.41;;;6.36;64.00
32735;BME280;19112;51.076;3.706;2023-04-26T02:20:03;101791.84;;;6.41;63.73
32735;BME280;19112;51.076;3.706;2023-04-26T02:22:29;101873.78;;;6.85;64.02
32735;BME280;19112;51.076;3.706;2023-04-26T02:24:56;101832.13;;;6.60;64.10
32735;BME280;19112;51.076;3.706;2023-04-26T02:27:22;101766.16;;;6.21;63.89
32735;BME280;19112;51.076;3.706;2023-04-26T02:29:48;101608.78;;;5.39;64.21
32735;BME280;19112;51.076;3.706;2023-04-26T02:32:14;101833.47;;;6.66;64.13
32735;BME280;19112;51.076;3.706;2023-04-26T02:34:40;101641.94;;;5.55;64.09
32735;BME280;19112;51.076;3.706;2023-04-26T02:37:07;101720.53;;;6.01;64.02
32735;BME280;19112;51.076;3.706;2023-04-26T02:39:33;101789.81;;;6.37;64.24
32735;BME280;19112;51.076;3.706;2023-04-26T02:41:59;101720.22;;;5.96;64.10
32735;BME280;19112;51.076;3.706;2023-04-26T02:44:28;101891.66;;;6.78;64.53
32735;BME280;19112;51.076;3.706;2023-04-26T02:46:56;101807.69;;;6.31;64.81
32735;BME280;19112;51.076;3.706;2023-04-26T02:49:22;101844.66;;;6.65;64.75
32735;BME280;19112;51.076;3.706;2023-04-26T02:51:48;101737.00;;;6.13;64.43
32735;BME280;19112;51.076;3.706;2023-04-26T02:54:14;101735.16;;;6.12;64.33
32735;BME280;19112;51.076;3.706;2023-04-26T02:56:41;101829.75;;;6.63;64.05
32735;BME280;19112;51.076;3.706;2023-04-26T02:59:06;101817.72;;;6.51;64.32
32735;BME280;19112;51.076;3.706;2023-04-26T03:01:32;101790.41;;;6.33;64.26
32735;BME280;19112;51.076;3.706;2023-04-26T03:03:58;101776.06;;;6.26;64.45
32735;BME280;19112;51.076;3.706;2023-04-26T03:06:24;101730.78;;;5.98;64.40
32735;BME280;19112;51.076;3.706;2023-04-26T03:08:50;101759.66;;;6.14;64.40
32735;BME280;19112;51.076;3.706;2023-04-26T03:11:16;101714.28;;;5.86;64.10
32735;BME280;19112;51.076;3.706;2023-04-26T03:13:41;101794.84;;;6.34;64.16
32735;BME280;19112;51.076;3.706;2023-04-26T03:16:07;101754.94;;;6.09;63.96
32735;BME280;19112;51.076;3.706;2023-04-26T03:18:34;101841.50;;;6.56;64.36
32735;BME280;19112;51.076;3.706;2023-04-26T03:21:00;101876.69;;;6.76;64.24
32735;BME280;19112;51.076;3.706;2023-04-26T03:23:26;101671.16;;;5.64;64.10
32735;BME280;19112;51.076;3.706;2023-04-26T03:25:53;101640.84;;;5.38;64.29
32735;BME280;19112;51.076;3.706;2023-04-26T03:28:19;101654.16;;;5.56;64.48
32735;BME280;19112;51.076;3.706;2023-04-26T03:30:45;101664.47;;;5.68;64.80
32735;BME280;19112;51.076;3.706;2023-04-26T03:33:11;101806.47;;;6.52;64.88
32735;BME280;19112;51.076;3.706;2023-04-26T03:35:38;101793.22;;;6.49;64.60
32735;BME280;19112;51.076;3.706;2023-04-26T03:38:04;101835.56;;;6.72;64.71
32735;BME280;19112;51.076;3.706;2023-04-26T03:40:30;101760.66;;;6.29;64.61
32735;BME280;19112;51.076;3.706;2023-04-26T03:42:55;101763.34;;;6.31;64.64
32735;BME280;19112;51.076;3.706;2023-04-26T03:45:21;101852.69;;;6.81;64.54
32735;BME280;19112;51.076;3.706;2023-04-26T03:47:47;101854.53;;;6.82;64.60
32735;BME280;19112;51.076;3.706;2023-04-26T03:50:13;101851.91;;;6.82;64.87
32735;BME280;19112;51.076;3.706;2023-04-26T03:52:39;101664.59;;;5.83;64.85
32735;BME280;19112;51.076;3.706;2023-04-26T03:55:06;101806.34;;;6.64;64.82
32735;BME280;19112;51.076;3.706;2023-04-26T03:57:34;101743.97;;;6.27;64.86
32735;BME280;19112;51.076;3.706;2023-04-26T04:00:00;101838.34;;;6.88;64.76
32735;BME280;19112;51.076;3.706;2023-04-26T04:02:26;101804.75;;;6.66;65.10
32735;BME280;19112;51.076;3.706;2023-04-26T04:04:52;101808.34;;;6.68;65.20
32735;BME280;19112;51.076;3.706;2023-04-26T04:07:18;101665.41;;;5.95;65.00
32735;BME280;19112;51.076;3.706;2023-04-26T04:09:44;101778.97;;;6.57;64.92
32735;BME280;19112;51.076;3.706;2023-04-26T04:12:10;101521.34;;;5.16;64.80
32735;BME280;19112;51.076;3.706;2023-04-26T04:14:36;101744.06;;;6.42;64.99
32735;BME280;19112;51.076;3.706;2023-04-26T04:17:01;101840.53;;;6.95;64.89
32735;BME280;19112;51.076;3.706;2023-04-26T04:19:28;101646.44;;;5.84;64.72
32735;BME280;19112;51.076;3.706;2023-04-26T04:21:54;101742.41;;;6.29;65.45
32735;BME280;19112;51.076;3.706;2023-04-26T04:24:20;101748.41;;;6.28;65.62
32735;BME280;19112;51.076;3.706;2023-04-26T04:26:45;101763.06;;;6.40;65.90
32735;BME280;19112;51.076;3.706;2023-04-26T04:29:11;101829.63;;;6.88;65.63
32735;BME280;19112;51.076;3.706;2023-04-26T04:31:37;101711.78;;;6.27;65.27
32735;BME280;19112;51.076;3.706;2023-04-26T04:34:04;101775.88;;;6.50;65.54
32735;BME280;19112;51.076;3.706;2023-04-26T04:36:31;101799.94;;;6.72;65.53
32735;BME280;19112;51.076;3.706;2023-04-26T04:38:57;101766.00;;;6.59;65.05
32735;BME280;19112;51.076;3.706;2023-04-26T04:41:22;101809.25;;;6.82;65.10
32735;BME280;19112;51.076;3.706;2023-04-26T04:43:48;101767.72;;;6.59;65.20
32735;BME280;19112;51.076;3.706;2023-04-26T04:46:14;101803.31;;;6.85;65.05
32735;BME280;19112;51.076;3.706;2023-04-26T04:48:41;101761.00;;;6.62;64.95
32735;BME280;19112;51.076;3.706;2023-04-26T04:51:08;101800.69;;;6.85;64.92
32735;BME280;19112;51.076;3.706;2023-04-26T04:53:34;101821.38;;;6.81;65.21
32735;BME280;19112;51.076;3.706;2023-04-26T04:55:59;101837.22;;;6.85;65.22
32735;BME280;19112;51.076;3.706;2023-04-26T04:58:25;101774.13;;;6.64;65.56
32735;BME280;19112;51.076;3.706;2023-04-26T05:00:52;101752.38;;;6.63;64.99
32735;BME280;19112;51.076;3.706;2023-04-26T05:03:21;101766.47;;;6.80;65.53
32735;BME280;19112;51.076;3.706;2023-04-26T05:05:47;101859.94;;;7.27;65.70
32735;BME280;19112;51.076;3.706;2023-04-26T05:08:13;101868.53;;;7.39;65.92
32735;BME280;19112;51.076;3.706;2023-04-26T05:10:39;101831.72;;;7.21;65.96
32735;BME280;19112;51.076;3.706;2023-04-26T05:13:04;101839.47;;;7.20;65.59
32735;BME280;19112;51.076;3.706;2023-04-26T05:15:30;101596.22;;;6.00;65.91
32735;BME280;19112;51.076;3.706;2023-04-26T05:17:56;101872.84;;;7.67;65.92
32735;BME280;19112;51.076;3.706;2023-04-26T05:20:24;101702.19;;;6.67;65.46
32735;BME280;19112;51.076;3.706;2023-04-26T05:22:50;101650.16;;;6.55;65.73
32735;BME280;19112;51.076;3.706;2023-04-26T05:25:16;101841.88;;;7.73;65.73
32735;BME280;19112;51.076;3.706;2023-04-26T05:27:42;101840.69;;;7.82;65.81
32735;BME280;19112;51.076;3.706;2023-04-26T05:30:10;101885.72;;;8.06;65.45
32735;BME280;19112;51.076;3.706;2023-04-26T05:32:37;101807.13;;;7.60;65.37
32735;BME280;19112;51.076;3.706;2023-04-26T05:35:03;101673.63;;;6.83;64.85
32735;BME280;19112;51.076;3.706;2023-04-26T05:37:29;101864.34;;;7.99;65.59
32735;BME280;19112;51.076;3.706;2023-04-26T05:39:56;101819.34;;;7.90;65.30
32735;BME280;19112;51.076;3.706;2023-04-26T05:42:22;101590.25;;;6.57;65.20
32735;BME280;19112;51.076;3.706;2023-04-26T05:44:48;101704.50;;;7.33;65.17
32735;BME280;19112;51.076;3.706;2023-04-26T05:47:14;101852.66;;;8.22;65.49
32735;BME280;19112;51.076;3.706;2023-04-26T05:49:39;101860.94;;;8.29;65.13
32735;BME280;19112;51.076;3.706;2023-04-26T05:52:05;101609.75;;;7.06;65.45
32735;BME280;19112;51.076;3.706;2023-04-26T05:54:31;101774.38;;;8.10;65.79
32735;BME280;19112;51.076;3.706;2023-04-26T05:56:57;101804.56;;;8.49;65.39
32735;BME280;19112;51.076;3.706;2023-04-26T05:59:23;101810.09;;;8.70;65.64
32735;BME280;19112;51.076;3.706;2023-04-26T06:01:49;101839.94;;;9.05;64.95
32735;BME280;19112;51.076;3.706;2023-04-26T06:04:15;101794.44;;;9.03;65.59
32735;BME280;19112;51.076;3.706;2023-04-26T06:06:40;101845.97;;;9.51;65.29
32735;BME280;19112;51.076;3.706;2023-04-26T06:09:07;101862.78;;;9.71;64.80
32735;BME280;19112;51.076;3.706;2023-04-26T06:11:33;101804.53;;;9.60;64.36
32735;BME280;19112;51.076;3.706;2023-04-26T06:13:59;101870.78;;;10.07;63.90
32735;BME280;19112;51.076;3.706;2023-04-26T06:16:25;101850.25;;;10.00;63.71
32735;BME280;19112;51.076;3.706;2023-04-26T06:18:51;101889.50;;;10.31;63.38
32735;BME280;19112;51.076;3.706;2023-04-26T06:21:16;101835.16;;;10.12;63.20
32735;BME280;19112;51.076;3.706;2023-04-26T06:23:42;101806.31;;;9.95;62.83
32735;BME280;19112;51.076;3.706;2023-04-26T06:26:08;101800.94;;;9.92;62.98
32735;BME280;19112;51.076;3.706;2023-04-26T06:28:34;101826.16;;;10.07;62.42
32735;BME280;19112;51.076;3.706;2023-04-26T06:31:00;101812.91;;;10.21;62.54
32735;BME280;19112;51.076;3.706;2023-04-26T06:33:26;101856.31;;;10.67;62.38
32735;BME280;19112;51.076;3.706;2023-04-26T06:35:52;101794.41;;;10.54;62.04
32735;BME280;19112;51.076;3.706;2023-04-26T06:38:18;101860.25;;;11.12;61.39
32735;BME280;19112;51.076;3.706;2023-04-26T06:40:43;101606.97;;;9.95;60.44
32735;BME280;19112;51.076;3.706;2023-04-26T06:43:09;101826.31;;;11.36;60.35
32735;BME280;19112;51.076;3.706;2023-04-26T06:45:35;101722.41;;;10.86;59.59
32735;BME280;19112;51.076;3.706;2023-04-26T06:48:01;101839.41;;;11.54;58.50
32735;BME280;19112;51.076;3.706;2023-04-26T06:50:29;101840.50;;;11.59;57.94
32735;BME280;19112;51.076;3.706;2023-04-26T06:52:55;101832.97;;;11.67;57.63
32735;BME280;19112;51.076;3.706;2023-04-26T06:55:21;101798.34;;;11.58;57.33
32735;BME280;19112;51.076;3.706;2023-04-26T06:57:48;101709.75;;;11.16;56.95
32735;BME280;19112;51.076;3.706;2023-04-26T07:00:15;101885.22;;;12.17;56.66
32735;BME280;19112;51.076;3.706;2023-04-26T07:02:40;101788.38;;;11.89;55.92
32735;BME280;19112;51.076;3.706;2023-04-26T07:05:07;101667.69;;;11.36;54.77
32735;BME280;19112;51.076;3.706;2023-04-26T07:07:33;101817.00;;;12.23;54.76
32735;BME280;19112;51.076;3.706;2023-04-26T07:09:59;101714.97;;;11.76;54.91
32735;BME280;19112;51.076;3.706;2023-04-26T07:12:25;101749.41;;;12.01;54.38
32735;BME280;19112;51.076;3.706;2023-04-26T07:14:50;101827.94;;;12.53;54.22
32735;BME280;19112;51.076;3.706;2023-04-26T07:17:16;101841.00;;;12.73;54.04
32735;BME280;19112;51.076;3.706;2023-04-26T07:19:42;101589.81;;;11.39;52.87
32735;BME280;19112;51.076;3.706;2023-04-26T07:22:08;101846.41;;;12.98;51.97
32735;BME280;19112;51.076;3.706;2023-04-26T07:24:35;101843.28;;;13.08;50.65
32735;BME280;19112;51.076;3.706;2023-04-26T07:27:01;101890.31;;;13.41;50.58
32735;BME280;19112;51.076;3.706;2023-04-26T07:29:28;101886.94;;;13.45;50.29
32735;BME280;19112;51.076;3.706;2023-04-26T07:31:53;101782.06;;;13.16;49.29
32735;BME280;19112;51.076;3.706;2023-04-26T07:34:19;101800.44;;;13.36;47.03
32735;BME280;19112;51.076;3.706;2023-04-26T07:36:45;101857.59;;;13.84;47.46
32735;BME280;19112;51.076;3.706;2023-04-26T07:39:11;101879.47;;;14.05;47.77
32735;BME280;19112;51.076;3.706;2023-04-26T07:41:37;101639.34;;;12.82;47.79
32735;BME280;19112;51.076;3.706;2023-04-26T07:44:03;101831.53;;;13.93;47.89
32735;BME280;19112;51.076;3.706;2023-04-26T07:46:29;101864.84;;;14.15;47.67
32735;BME280;19112;51.076;3.706;2023-04-26T07:48:55;101862.06;;;14.10;47.78
32735;BME280;19112;51.076;3.706;2023-04-26T07:51:21;101842.13;;;13.95;47.89
32735;BME280;19112;51.076;3.706;2023-04-26T07:53:46;101765.47;;;13.66;47.69
32735;BME280;19112;51.076;3.706;2023-04-26T07:56:12;101826.25;;;14.19;47.33
32735;BME280;19112;51.076;3.706;2023-04-26T07:58:38;101832.97;;;14.34;47.19
32735;BME280;19112;51.076;3.706;2023-04-26T08:01:05;101847.34;;;14.70;46.49
32735;BME280;19112;51.076;3.706;2023-04-26T08:03:31;101885.06;;;14.91;45.81
32735;BME280;19112;51.076;3.706;2023-04-26T08:05:57;101807.59;;;14.14;45.65
32735;BME280;19112;51.076;3.706;2023-04-26T08:08:26;101743.56;;;13.69;46.04
32735;BME280;19112;51.076;3.706;2023-04-26T08:10:52;101833.81;;;14.08;45.96
32735;BME280;19112;51.076;3.706;2023-04-26T08:13:18;101820.78;;;14.12;46.12
32735;BME280;19112;51.076;3.706;2023-04-26T08:15:44;101901.94;;;14.94;45.59
32735;BME280;19112;51.076;3.706;2023-04-26T08:18:10;101839.16;;;14.89;43.80
32735;BME280;19112;51.076;3.706;2023-04-26T08:20:36;101850.78;;;15.23;43.90
32735;BME280;19112;51.076;3.706;2023-04-26T08:23:02;101896.31;;;15.69;42.85
32735;BME280;19112;51.076;3.706;2023-04-26T08:25:28;101862.72;;;15.67;42.60
32735;BME280;19112;51.076;3.706;2023-04-26T08:27:54;101752.19;;;14.70;41.35
32735;BME280;19112;51.076;3.706;2023-04-26T08:30:20;101729.22;;;14.67;41.37
32735;BME280;19112;51.076;3.706;2023-04-26T08:32:47;101816.94;;;15.41;41.67
32735;BME280;19112;51.076;3.706;2023-04-26T08:35:12;101776.84;;;15.27;41.51
32735;BME280;19112;51.076;3.706;2023-04-26T08:37:38;101862.56;;;15.04;39.51
32735;BME280;19112;51.076;3.706;2023-04-26T08:40:06;101860.84;;;15.34;39.00
32735;BME280;19112;51.076;3.706;2023-04-26T08:42:42;101895.91;;;15.27;40.33
32735;BME280;19112;51.076;3.706;2023-04-26T08:45:09;101842.66;;;15.16;38.71
32735;BME280;19112;51.076;3.706;2023-04-26T08:48:03;101897.84;;;15.33;38.44
32735;BME280;19112;51.076;3.706;2023-04-26T08:50:32;101797.72;;;14.88;38.53
32735;BME280;19112;51.076;3.706;2023-04-26T08:52:59;101891.66;;;15.92;38.34
32735;BME280;19112;51.076;3.706;2023-04-26T08:55:25;101896.91;;;16.21;38.50
32735;BME280;19112;51.076;3.706;2023-04-26T08:57:51;101857.69;;;16.41;38.12
32735;BME280;19112;51.076;3.706;2023-04-26T09:00:18;101847.41;;;16.55;35.22
32735;BME280;19112;51.076;3.706;2023-04-26T09:02:50;101565.59;;;15.08;36.36
32735;BME280;19112;51.076;3.706;2023-04-26T09:05:21;101858.38;;;16.70;35.57
32735;BME280;19112;51.076;3.706;2023-04-26T09:08:00;101833.00;;;16.78;35.36
32735;BME280;19112;51.076;3.706;2023-04-26T09:10:27;101827.13;;;16.93;33.76
32735;BME280;19112;51.076;3.706;2023-04-26T09:12:54;101843.19;;;16.99;32.84
32735;BME280;19112;51.076;3.706;2023-04-26T09:15:26;101644.19;;;15.80;35.80
32735;BME280;19112;51.076;3.706;2023-04-26T09:17:52;101773.78;;;16.79;36.16
32735;BME280;19112;51.076;3.706;2023-04-26T09:20:24;101881.84;;;17.68;34.70
32735;BME280;19112;51.076;3.706;2023-04-26T09:23:02;101768.16;;;17.05;35.30
32735;BME280;19112;51.076;3.706;2023-04-26T09:25:30;101878.88;;;17.13;35.12
32735;BME280;19112;51.076;3.706;2023-04-26T09:27:57;101839.44;;;16.55;35.66
32735;BME280;19112;51.076;3.706;2023-04-26T09:30:24;101785.81;;;15.95;36.43
32735;BME280;19112;51.076;3.706;2023-04-26T09:33:01;101689.84;;;14.76;36.44
32735;BME280;19112;51.076;3.706;2023-04-26T09:35:42;101821.44;;;15.74;37.01
32735;BME280;19112;51.076;3.706;2023-04-26T09:38:10;101873.72;;;16.47;36.91
32735;BME280;19112;51.076;3.706;2023-04-26T09:40:42;101646.88;;;15.15;35.97
32735;BME280;19112;51.076;3.706;2023-04-26T09:43:20;101813.25;;;15.36;36.00
32735;BME280;19112;51.076;3.706;2023-04-26T09:48:26;101854.81;;;15.10;36.42
32735;BME280;19112;51.076;3.706;2023-04-26T09:51:06;101810.75;;;15.10;37.70
32735;BME280;19112;51.076;3.706;2023-04-26T09:53:40;101769.63;;;15.22;36.78
32735;BME280;19112;51.076;3.706;2023-04-26T09:56:18;101737.81;;;15.18;35.61
32735;BME280;19112;51.076;3.706;2023-04-26T10:01:18;101764.03;;;15.11;35.54
32735;BME280;19112;51.076;3.706;2023-04-26T10:03:45;101881.88;;;15.88;35.13
32735;BME280;19112;51.076;3.706;2023-04-26T10:06:15;101764.44;;;15.88;36.53
32735;BME280;19112;51.076;3.706;2023-04-26T10:08:42;101659.91;;;15.74;36.18
32735;BME280;19112;51.076;3.706;2023-04-26T10:11:08;101712.69;;;16.38;34.89
32735;BME280;19112;51.076;3.706;2023-04-26T10:13:38;101846.09;;;17.52;34.88
32735;BME280;19112;51.076;3.706;2023-04-26T10:16:05;101865.63;;;17.96;33.79
32735;BME280;19112;51.076;3.706;2023-04-26T10:18:31;101871.22;;;16.88;33.19
32735;BME280;19112;51.076;3.706;2023-04-26T10:21:25;101839.47;;;16.20;33.94
32735;BME280;19112;51.076;3.706;2023-04-26T10:23:52;101841.75;;;16.08;35.20
32735;BME280;19112;51.076;3.706;2023-04-26T10:26:51;101860.28;;;16.74;36.41
32735;BME280;19112;51.076;3.706;2023-04-26T10:29:20;101854.44;;;17.26;34.38
32735;BME280;19112;51.076;3.706;2023-04-26T10:34:36;101798.84;;;17.76;33.77
32735;BME280;19112;51.076;3.706;2023-04-26T10:37:13;101825.16;;;17.67;32.27
32735;BME280;19112;51.076;3.706;2023-04-26T10:39:42;101849.13;;;18.14;32.37
32735;BME280;19112;51.076;3.706;2023-04-26T10:42:28;101723.63;;;17.34;32.61
32735;BME280;19112;51.076;3.706;2023-04-26T10:44:56;101801.03;;;17.53;32.21
32735;BME280;19112;51.076;3.706;2023-04-26T10:47:34;101815.06;;;17.48;33.56
32735;BME280;19112;51.076;3.706;2023-04-26T10:52:28;101708.81;;;17.01;32.99
32735;BME280;19112;51.076;3.706;2023-04-26T10:54:58;101744.63;;;17.21;33.11
32735;BME280;19112;51.076;3.706;2023-04-26T10:57:48;101827.88;;;18.16;32.71
32735;BME280;19112;51.076;3.706;2023-04-26T11:00:29;101807.91;;;17.03;32.57
32735;BME280;19112;51.076;3.706;2023-04-26T11:03:02;101773.06;;;17.28;33.27
32735;BME280;19112;51.076;3.706;2023-04-26T11:05:46;101800.63;;;16.57;32.93
32735;BME280;19112;51.076;3.706;2023-04-26T11:10:42;101691.88;;;16.55;32.44
32735;BME280;19112;51.076;3.706;2023-04-26T11:13:08;101792.44;;;17.68;31.78
32735;BME280;19112;51.076;3.706;2023-04-26T11:15:34;101684.38;;;17.17;32.83
32735;BME280;19112;51.076;3.706;2023-04-26T11:18:04;101757.69;;;17.56;33.38
32735;BME280;19112;51.076;3.706;2023-04-26T11:20:31;101784.44;;;17.67;34.16
32735;BME280;19112;51.076;3.706;2023-04-26T11:22:58;101825.47;;;17.79;34.12
32735;BME280;19112;51.076;3.706;2023-04-26T11:25:28;101674.44;;;16.66;33.16
32735;BME280;19112;51.076;3.706;2023-04-26T11:28:02;101557.75;;;15.47;32.87
32735;BME280;19112;51.076;3.706;2023-04-26T11:30:31;101834.28;;;16.97;33.61
32735;BME280;19112;51.076;3.706;2023-04-26T11:33:01;101705.06;;;16.52;33.40
32735;BME280;19112;51.076;3.706;2023-04-26T11:35:34;101748.25;;;17.26;35.27
32735;BME280;19112;51.076;3.706;2023-04-26T11:38:03;101814.06;;;17.02;33.42
32735;BME280;19112;51.076;3.706;2023-04-26T11:40:33;101657.16;;;15.69;33.95
32735;BME280;19112;51.076;3.706;2023-04-26T11:43:05;101816.22;;;15.77;34.62
32735;BME280;19112;51.076;3.706;2023-04-26T11:45:32;101727.09;;;15.45;35.06
32735;BME280;19112;51.076;3.706;2023-04-26T11:48:05;101659.13;;;15.11;35.19
32735;BME280;19112;51.076;3.706;2023-04-26T11:50:37;101716.69;;;16.19;35.79
32735;BME280;19112;51.076;3.706;2023-04-26T11:53:07;101813.97;;;17.38;36.44
32735;BME280;19112;51.076;3.706;2023-04-26T11:55:34;101806.28;;;17.96;33.55
32735;BME280;19112;51.076;3.706;2023-04-26T11:58:08;101778.31;;;17.71;33.05
32735;BME280;19112;51.076;3.706;2023-04-26T12:00:35;101816.75;;;17.03;32.80
32735;BME280;19112;51.076;3.706;2023-04-26T12:03:07;101680.84;;;15.64;34.06
32735;BME280;19112;51.076;3.706;2023-04-26T12:05:35;101738.63;;;15.81;35.30
32735;BME280;19112;51.076;3.706;2023-04-26T12:08:01;101711.69;;;15.97;35.54
32735;BME280;19112;51.076;3.706;2023-04-26T12:10:34;101797.59;;;16.07;34.39
32735;BME280;19112;51.076;3.706;2023-04-26T12:13:00;101724.53;;;15.82;34.46
32735;BME280;19112;51.076;3.706;2023-04-26T12:15:32;101814.81;;;15.89;33.88
32735;BME280;19112;51.076;3.706;2023-04-26T12:18:00;101822.41;;;15.47;33.92
32735;BME280;19112;51.076;3.706;2023-04-26T12:20:35;101636.16;;;15.10;33.44
32735;BME280;19112;51.076;3.706;2023-04-26T12:23:13;101826.50;;;16.31;33.99
32735;BME280;19112;51.076;3.706;2023-04-26T12:25:41;101590.28;;;15.43;33.64
32735;BME280;19112;51.076;3.706;2023-04-26T12:28:15;101571.91;;;14.81;32.87
32735;BME280;19112;51.076;3.706;2023-04-26T12:30:41;101784.91;;;15.93;33.53
32735;BME280;19112;51.076;3.706;2023-04-26T12:33:07;101748.41;;;15.50;33.21
32735;BME280;19112;51.076;3.706;2023-04-26T12:35:33;101668.25;;;15.89;32.47
32735;BME280;19112;51.076;3.706;2023-04-26T12:38:00;101822.41;;;17.20;32.35
32735;BME280;19112;51.076;3.706;2023-04-26T12:40:27;101714.75;;;17.33;32.53
32735;BME280;19112;51.076;3.706;2023-04-26T12:42:54;101780.53;;;17.92;33.03
32735;BME280;19112;51.076;3.706;2023-04-26T12:45:22;101770.88;;;17.97;32.25
32735;BME280;19112;51.076;3.706;2023-04-26T12:47:49;101773.63;;;17.56;31.91
32735;BME280;19112;51.076;3.706;2023-04-26T12:50:16;101734.84;;;17.20;32.27
32735;BME280;19112;51.076;3.706;2023-04-26T12:52:43;101803.38;;;17.84;33.18
32735;BME280;19112;51.076;3.706;2023-04-26T12:55:14;101673.56;;;16.27;33.24
32735;BME280;19112;51.076;3.706;2023-04-26T12:57:42;101737.28;;;16.31;33.12
32735;BME280;19112;51.076;3.706;2023-04-26T13:00:14;101771.38;;;16.17;33.09
32735;BME280;19112;51.076;3.706;2023-04-26T13:02:40;101804.56;;;16.38;33.73
32735;BME280;19112;51.076;3.706;2023-04-26T13:05:07;101686.31;;;16.07;33.89
32735;BME280;19112;51.076;3.706;2023-04-26T13:07:38;101799.47;;;17.21;33.15
32735;BME280;19112;51.076;3.706;2023-04-26T13:10:05;101690.56;;;16.74;32.48